sensor_id;sensor_type;location;lat;lon;timestamp;P1;durP1;ratioP1;P2;durP2;ratioP2
9294;SDS011;4686;44.496;11.324;2022-11-03T00:01:09;51.83;;;32.77;;
9294;SDS011;4686;44.496;11.324;2022-11-03T00:03:36;52.23;;;33.47;;
9294;SDS011;4686;44.496;11.324;2022-11-03T00:06:03;55.27;;;33.10;;
9294;SDS011;4686;44.496;11.324;2022-11-03T00:08:31;50.17;;;30.90;;
9294;SDS011;4686;44.496;11.324;2022-11-03T00:11:02;51.90;;;33.90;;
9294;SDS011;4686;44.496;11.324;2022-11-03T00:13:30;49.27;;;31.77;;
9294;SDS011;4686;44.496;11.324;2022-11-03T00:15:58;49.97;;;32.63;;
9294;SDS011;4686;44.496;11.324;2022-11-03T00:18:26;44.73;;;30.47;;
9294;SDS011;4686;44.496;11.324;2022-11-03T00:20:57;51.33;;;32.30;;
9294;SDS011;4686;44.496;11.324;2022-11-03T00:23:26;44.70;;;31.80;;
9294;SDS011;4686;44.496;11.324;2022-11-03T00:25:54;45.77;;;31.00;;
9294;SDS011;4686;44.496;11.324;2022-11-03T00:28:22;41.50;;;29.57;;
9294;SDS011;4686;44.496;11.324;2022-11-03T00:30:50;46.57;;;30.77;;
9294;SDS011;4686;44.496;11.324;2022-11-03T00:33:17;41.43;;;28.23;;
9294;SDS011;4686;44.496;11.324;2022-11-03T00:35:46;42.53;;;28.83;;
9294;SDS011;4686;44.496;11.324;2022-11-03T00:38:13;40.00;;;27.47;;
9294;SDS011;4686;44.496;11.324;2022-11-03T00:40:41;53.40;;;29.53;;
9294;SDS011;4686;44.496;11.324;2022-11-03T00:43:08;44.90;;;28.97;;
9294;SDS011;4686;44.496;11.324;2022-11-03T00:45:36;40.33;;;28.83;;
9294;SDS011;4686;44.496;11.324;2022-11-03T00:48:03;43.40;;;29.10;;
9294;SDS011;4686;44.496;11.324;2022-11-03T00:50:49;45.37;;;29.70;;
9294;SDS011;4686;44.496;11.324;2022-11-03T00:53:17;46.63;;;29.50;;
9294;SDS011;4686;44.496;11.324;2022-11-03T00:55:47;42.93;;;29.37;;
9294;SDS011;4686;44.496;11.324;2022-11-03T00:58:15;40.07;;;29.30;;
9294;SDS011;4686;44.496;11.324;2022-11-03T01:00:42;53.27;;;32.60;;
9294;SDS011;4686;44.496;11.324;2022-11-03T01:03:10;49.63;;;33.37;;
9294;SDS011;4686;44.496;11.324;2022-11-03T01:05:39;51.50;;;34.57;;
9294;SDS011;4686;44.496;11.324;2022-11-03T01:08:30;49.53;;;33.30;;
9294;SDS011;4686;44.496;11.324;2022-11-03T01:11:03;58.93;;;36.07;;
9294;SDS011;4686;44.496;11.324;2022-11-03T01:13:47;58.40;;;34.83;;
9294;SDS011;4686;44.496;11.324;2022-11-03T01:16:18;57.63;;;34.03;;
9294;SDS011;4686;44.496;11.324;2022-11-03T01:18:46;55.07;;;36.03;;
9294;SDS011;4686;44.496;11.324;2022-11-03T01:21:13;53.73;;;36.83;;
9294;SDS011;4686;44.496;11.324;2022-11-03T01:23:42;53.97;;;37.07;;
9294;SDS011;4686;44.496;11.324;2022-11-03T01:26:10;56.17;;;35.63;;
9294;SDS011;4686;44.496;11.324;2022-11-03T01:28:38;57.47;;;35.77;;
9294;SDS011;4686;44.496;11.324;2022-11-03T01:31:05;53.63;;;36.87;;
9294;SDS011;4686;44.496;11.324;2022-11-03T01:33:33;58.10;;;37.30;;
9294;SDS011;4686;44.496;11.324;2022-11-03T01:36:00;56.43;;;36.30;;
9294;SDS011;4686;44.496;11.324;2022-11-03T01:38:30;55.27;;;36.60;;
9294;SDS011;4686;44.496;11.324;2022-11-03T01:40:59;56.13;;;37.90;;
9294;SDS011;4686;44.496;11.324;2022-11-03T01:43:27;59.97;;;36.77;;
9294;SDS011;4686;44.496;11.324;2022-11-03T01:45:58;56.17;;;36.80;;
9294;SDS011;4686;44.496;11.324;2022-11-03T01:48:27;60.50;;;36.60;;
9294;SDS011;4686;44.496;11.324;2022-11-03T01:50:55;58.97;;;37.30;;
9294;SDS011;4686;44.496;11.324;2022-11-03T01:53:22;52.57;;;36.13;;
9294;SDS011;4686;44.496;11.324;2022-11-03T01:55:50;51.90;;;35.73;;
9294;SDS011;4686;44.496;11.324;2022-11-03T01:58:20;55.33;;;35.47;;
9294;SDS011;4686;44.496;11.324;2022-11-03T02:00:52;59.10;;;37.03;;
9294;SDS011;4686;44.496;11.324;2022-11-03T02:03:20;54.93;;;34.33;;
9294;SDS011;4686;44.496;11.324;2022-11-03T02:05:49;54.43;;;35.80;;
9294;SDS011;4686;44.496;11.324;2022-11-03T02:08:18;56.00;;;36.10;;
9294;SDS011;4686;44.496;11.324;2022-11-03T02:10:47;48.87;;;35.07;;
9294;SDS011;4686;44.496;11.324;2022-11-03T02:13:15;52.77;;;34.20;;
9294;SDS011;4686;44.496;11.324;2022-11-03T02:15:46;58.30;;;34.80;;
9294;SDS011;4686;44.496;11.324;2022-11-03T02:18:14;58.27;;;34.80;;
9294;SDS011;4686;44.496;11.324;2022-11-03T02:20:42;48.27;;;33.70;;
9294;SDS011;4686;44.496;11.324;2022-11-03T02:23:23;53.13;;;34.97;;
9294;SDS011;4686;44.496;11.324;2022-11-03T02:25:54;57.77;;;36.70;;
9294;SDS011;4686;44.496;11.324;2022-11-03T02:28:24;51.90;;;36.27;;
9294;SDS011;4686;44.496;11.324;2022-11-03T02:30:56;53.20;;;38.10;;
9294;SDS011;4686;44.496;11.324;2022-11-03T02:33:31;62.07;;;37.13;;
9294;SDS011;4686;44.496;11.324;2022-11-03T02:36:04;54.80;;;36.57;;
9294;SDS011;4686;44.496;11.324;2022-11-03T02:38:33;52.97;;;35.90;;
9294;SDS011;4686;44.496;11.324;2022-11-03T02:41:04;58.00;;;36.03;;
9294;SDS011;4686;44.496;11.324;2022-11-03T02:43:33;52.00;;;35.87;;
9294;SDS011;4686;44.496;11.324;2022-11-03T02:46:00;57.77;;;36.60;;
9294;SDS011;4686;44.496;11.324;2022-11-03T02:48:30;54.67;;;37.20;;
9294;SDS011;4686;44.496;11.324;2022-11-03T02:50:57;54.60;;;36.07;;
9294;SDS011;4686;44.496;11.324;2022-11-03T02:53:24;51.63;;;35.40;;
9294;SDS011;4686;44.496;11.324;2022-11-03T02:55:54;60.23;;;35.80;;
9294;SDS011;4686;44.496;11.324;2022-11-03T02:58:27;50.20;;;36.60;;
9294;SDS011;4686;44.496;11.324;2022-11-03T03:00:58;55.93;;;36.40;;
9294;SDS011;4686;44.496;11.324;2022-11-03T03:03:27;65.70;;;37.20;;
9294;SDS011;4686;44.496;11.324;2022-11-03T03:05:55;57.70;;;39.57;;
9294;SDS011;4686;44.496;11.324;2022-11-03T03:08:25;64.53;;;39.50;;
9294;SDS011;4686;44.496;11.324;2022-11-03T03:10:53;65.33;;;40.13;;
9294;SDS011;4686;44.496;11.324;2022-11-03T03:13:21;69.00;;;41.47;;
9294;SDS011;4686;44.496;11.324;2022-11-03T03:15:54;63.87;;;42.00;;
9294;SDS011;4686;44.496;11.324;2022-11-03T03:18:25;64.53;;;41.03;;
9294;SDS011;4686;44.496;11.324;2022-11-03T03:20:55;57.50;;;39.63;;
9294;SDS011;4686;44.496;11.324;2022-11-03T03:23:25;64.30;;;41.13;;
9294;SDS011;4686;44.496;11.324;2022-11-03T03:25:54;60.50;;;41.87;;
9294;SDS011;4686;44.496;11.324;2022-11-03T03:28:25;61.67;;;40.40;;
9294;SDS011;4686;44.496;11.324;2022-11-03T03:30:55;58.47;;;38.57;;
9294;SDS011;4686;44.496;11.324;2022-11-03T03:33:23;63.43;;;41.20;;
9294;SDS011;4686;44.496;11.324;2022-11-03T03:35:52;62.07;;;38.13;;
9294;SDS011;4686;44.496;11.324;2022-11-03T03:38:20;63.50;;;39.87;;
9294;SDS011;4686;44.496;11.324;2022-11-03T03:40:49;53.47;;;37.63;;
9294;SDS011;4686;44.496;11.324;2022-11-03T03:43:17;63.10;;;38.70;;
9294;SDS011;4686;44.496;11.324;2022-11-03T03:45:45;59.83;;;36.77;;
9294;SDS011;4686;44.496;11.324;2022-11-03T03:48:18;62.90;;;38.77;;
9294;SDS011;4686;44.496;11.324;2022-11-03T03:50:46;58.67;;;39.17;;
9294;SDS011;4686;44.496;11.324;2022-11-03T03:53:15;54.53;;;36.70;;
9294;SDS011;4686;44.496;11.324;2022-11-03T03:55:44;63.57;;;38.90;;
9294;SDS011;4686;44.496;11.324;2022-11-03T03:58:15;59.87;;;39.90;;
9294;SDS011;4686;44.496;11.324;2022-11-03T04:00:43;64.90;;;37.60;;
9294;SDS011;4686;44.496;11.324;2022-11-03T04:03:13;64.57;;;39.53;;
9294;SDS011;4686;44.496;11.324;2022-11-03T04:05:43;57.67;;;37.97;;
9294;SDS011;4686;44.496;11.324;2022-11-03T04:08:10;56.77;;;37.70;;
9294;SDS011;4686;44.496;11.324;2022-11-03T04:10:38;61.30;;;39.90;;
9294;SDS011;4686;44.496;11.324;2022-11-03T04:13:05;58.10;;;39.27;;
9294;SDS011;4686;44.496;11.324;2022-11-03T04:15:50;61.70;;;40.50;;
9294;SDS011;4686;44.496;11.324;2022-11-03T04:18:47;61.60;;;38.23;;
9294;SDS011;4686;44.496;11.324;2022-11-03T04:21:47;69.93;;;41.23;;
9294;SDS011;4686;44.496;11.324;2022-11-03T04:24:32;67.17;;;40.33;;
9294;SDS011;4686;44.496;11.324;2022-11-03T04:27:04;65.80;;;40.97;;
9294;SDS011;4686;44.496;11.324;2022-11-03T04:29:40;66.83;;;40.20;;
9294;SDS011;4686;44.496;11.324;2022-11-03T04:32:07;62.60;;;39.10;;
9294;SDS011;4686;44.496;11.324;2022-11-03T04:34:38;55.33;;;40.20;;
9294;SDS011;4686;44.496;11.324;2022-11-03T04:37:09;62.20;;;40.70;;
9294;SDS011;4686;44.496;11.324;2022-11-03T04:39:48;60.93;;;40.93;;
9294;SDS011;4686;44.496;11.324;2022-11-03T04:42:59;63.43;;;41.20;;
9294;SDS011;4686;44.496;11.324;2022-11-03T04:45:27;60.50;;;40.80;;
9294;SDS011;4686;44.496;11.324;2022-11-03T04:47:54;65.50;;;42.00;;
9294;SDS011;4686;44.496;11.324;2022-11-03T04:50:24;69.90;;;43.10;;
9294;SDS011;4686;44.496;11.324;2022-11-03T04:52:54;68.00;;;42.97;;
9294;SDS011;4686;44.496;11.324;2022-11-03T04:55:21;71.23;;;43.47;;
9294;SDS011;4686;44.496;11.324;2022-11-03T04:57:49;72.47;;;45.03;;
9294;SDS011;4686;44.496;11.324;2022-11-03T05:00:20;66.73;;;43.60;;
9294;SDS011;4686;44.496;11.324;2022-11-03T05:02:48;64.97;;;41.67;;
9294;SDS011;4686;44.496;11.324;2022-11-03T05:05:16;67.37;;;43.10;;
9294;SDS011;4686;44.496;11.324;2022-11-03T05:07:43;68.40;;;44.07;;
9294;SDS011;4686;44.496;11.324;2022-11-03T05:10:14;70.53;;;42.37;;
9294;SDS011;4686;44.496;11.324;2022-11-03T05:12:42;64.70;;;41.30;;
9294;SDS011;4686;44.496;11.324;2022-11-03T05:15:24;61.30;;;41.07;;
9294;SDS011;4686;44.496;11.324;2022-11-03T05:17:53;66.53;;;42.03;;
9294;SDS011;4686;44.496;11.324;2022-11-03T05:20:25;68.30;;;42.67;;
9294;SDS011;4686;44.496;11.324;2022-11-03T05:22:55;72.60;;;41.80;;
9294;SDS011;4686;44.496;11.324;2022-11-03T05:25:30;65.13;;;40.87;;
9294;SDS011;4686;44.496;11.324;2022-11-03T05:28:00;65.30;;;40.50;;
9294;SDS011;4686;44.496;11.324;2022-11-03T05:30:27;68.27;;;41.37;;
9294;SDS011;4686;44.496;11.324;2022-11-03T05:32:55;61.63;;;39.53;;
9294;SDS011;4686;44.496;11.324;2022-11-03T05:35:26;61.23;;;40.47;;
9294;SDS011;4686;44.496;11.324;2022-11-03T05:37:55;71.77;;;41.17;;
9294;SDS011;4686;44.496;11.324;2022-11-03T05:40:23;61.23;;;41.10;;
9294;SDS011;4686;44.496;11.324;2022-11-03T05:42:54;66.20;;;41.50;;
9294;SDS011;4686;44.496;11.324;2022-11-03T05:45:23;65.63;;;42.90;;
9294;SDS011;4686;44.496;11.324;2022-11-03T05:47:53;66.93;;;41.90;;
9294;SDS011;4686;44.496;11.324;2022-11-03T05:50:21;63.57;;;39.63;;
9294;SDS011;4686;44.496;11.324;2022-11-03T05:52:51;58.77;;;38.97;;
9294;SDS011;4686;44.496;11.324;2022-11-03T05:55:22;60.70;;;40.60;;
9294;SDS011;4686;44.496;11.324;2022-11-03T05:57:53;58.97;;;39.00;;
9294;SDS011;4686;44.496;11.324;2022-11-03T06:00:22;66.43;;;41.30;;
9294;SDS011;4686;44.496;11.324;2022-11-03T06:02:51;65.63;;;41.00;;
9294;SDS011;4686;44.496;11.324;2022-11-03T06:05:19;58.10;;;38.37;;
9294;SDS011;4686;44.496;11.324;2022-11-03T06:07:47;65.93;;;39.07;;
9294;SDS011;4686;44.496;11.324;2022-11-03T06:10:17;66.10;;;39.23;;
9294;SDS011;4686;44.496;11.324;2022-11-03T06:12:46;55.60;;;38.70;;
9294;SDS011;4686;44.496;11.324;2022-11-03T06:15:23;63.23;;;41.53;;
9294;SDS011;4686;44.496;11.324;2022-11-03T06:17:51;67.10;;;41.70;;
9294;SDS011;4686;44.496;11.324;2022-11-03T06:20:22;62.07;;;40.03;;
9294;SDS011;4686;44.496;11.324;2022-11-03T06:22:50;64.10;;;42.17;;
9294;SDS011;4686;44.496;11.324;2022-11-03T06:25:23;64.90;;;40.30;;
9294;SDS011;4686;44.496;11.324;2022-11-03T06:27:52;62.57;;;41.60;;
9294;SDS011;4686;44.496;11.324;2022-11-03T06:30:24;61.50;;;40.60;;
9294;SDS011;4686;44.496;11.324;2022-11-03T06:32:52;60.97;;;39.30;;
9294;SDS011;4686;44.496;11.324;2022-11-03T06:35:20;68.63;;;39.63;;
9294;SDS011;4686;44.496;11.324;2022-11-03T06:37:48;56.67;;;39.00;;
9294;SDS011;4686;44.496;11.324;2022-11-03T06:40:28;69.63;;;38.93;;
9294;SDS011;4686;44.496;11.324;2022-11-03T06:42:56;60.87;;;39.37;;
9294;SDS011;4686;44.496;11.324;2022-11-03T06:45:24;57.33;;;37.93;;
9294;SDS011;4686;44.496;11.324;2022-11-03T06:47:53;58.17;;;38.60;;
9294;SDS011;4686;44.496;11.324;2022-11-03T06:50:22;60.00;;;39.33;;
9294;SDS011;4686;44.496;11.324;2022-11-03T06:52:52;68.73;;;39.50;;
9294;SDS011;4686;44.496;11.324;2022-11-03T06:55:21;60.00;;;40.47;;
9294;SDS011;4686;44.496;11.324;2022-11-03T06:57:50;60.20;;;39.83;;
9294;SDS011;4686;44.496;11.324;2022-11-03T07:00:18;50.40;;;37.50;;
9294;SDS011;4686;44.496;11.324;2022-11-03T07:02:54;54.50;;;38.20;;
9294;SDS011;4686;44.496;11.324;2022-11-03T07:05:22;55.87;;;37.67;;
9294;SDS011;4686;44.496;11.324;2022-11-03T07:07:51;63.30;;;41.60;;
9294;SDS011;4686;44.496;11.324;2022-11-03T07:10:21;52.37;;;34.17;;
9294;SDS011;4686;44.496;11.324;2022-11-03T07:12:49;52.27;;;34.77;;
9294;SDS011;4686;44.496;11.324;2022-11-03T07:15:19;52.23;;;35.77;;
9294;SDS011;4686;44.496;11.324;2022-11-03T07:17:47;58.87;;;36.60;;
9294;SDS011;4686;44.496;11.324;2022-11-03T07:20:16;61.40;;;35.40;;
9294;SDS011;4686;44.496;11.324;2022-11-03T07:25:20;69.40;;;39.07;;
9294;SDS011;4686;44.496;11.324;2022-11-03T07:27:47;68.10;;;39.47;;
9294;SDS011;4686;44.496;11.324;2022-11-03T07:30:17;66.47;;;39.17;;
9294;SDS011;4686;44.496;11.324;2022-11-03T07:32:45;70.33;;;40.97;;
9294;SDS011;4686;44.496;11.324;2022-11-03T07:35:23;69.73;;;41.20;;
9294;SDS011;4686;44.496;11.324;2022-11-03T07:37:51;71.43;;;43.70;;
9294;SDS011;4686;44.496;11.324;2022-11-03T07:40:20;75.60;;;41.23;;
9294;SDS011;4686;44.496;11.324;2022-11-03T07:42:48;74.27;;;43.10;;
9294;SDS011;4686;44.496;11.324;2022-11-03T07:45:29;76.30;;;44.40;;
9294;SDS011;4686;44.496;11.324;2022-11-03T07:47:57;75.47;;;45.27;;
9294;SDS011;4686;44.496;11.324;2022-11-03T07:50:26;80.73;;;46.00;;
9294;SDS011;4686;44.496;11.324;2022-11-03T07:52:54;80.13;;;46.87;;
9294;SDS011;4686;44.496;11.324;2022-11-03T07:55:21;84.83;;;45.80;;
9294;SDS011;4686;44.496;11.324;2022-11-03T07:57:51;77.63;;;43.70;;
9294;SDS011;4686;44.496;11.324;2022-11-03T08:00:18;76.37;;;41.73;;
9294;SDS011;4686;44.496;11.324;2022-11-03T08:02:47;80.97;;;45.13;;
9294;SDS011;4686;44.496;11.324;2022-11-03T08:05:15;67.97;;;41.03;;
9294;SDS011;4686;44.496;11.324;2022-11-03T08:07:43;73.47;;;43.03;;
9294;SDS011;4686;44.496;11.324;2022-11-03T08:10:11;67.63;;;41.87;;
9294;SDS011;4686;44.496;11.324;2022-11-03T08:12:40;77.50;;;43.10;;
9294;SDS011;4686;44.496;11.324;2022-11-03T08:15:07;67.87;;;42.57;;
9294;SDS011;4686;44.496;11.324;2022-11-03T08:17:35;84.87;;;43.07;;
9294;SDS011;4686;44.496;11.324;2022-11-03T08:20:03;77.53;;;43.63;;
9294;SDS011;4686;44.496;11.324;2022-11-03T08:22:30;75.03;;;43.47;;
9294;SDS011;4686;44.496;11.324;2022-11-03T08:25:00;75.97;;;44.37;;
9294;SDS011;4686;44.496;11.324;2022-11-03T08:27:27;86.70;;;49.60;;
9294;SDS011;4686;44.496;11.324;2022-11-03T08:29:55;87.20;;;48.90;;
9294;SDS011;4686;44.496;11.324;2022-11-03T08:32:22;85.07;;;49.00;;
9294;SDS011;4686;44.496;11.324;2022-11-03T08:34:49;89.00;;;51.20;;
9294;SDS011;4686;44.496;11.324;2022-11-03T08:37:16;88.13;;;50.00;;
9294;SDS011;4686;44.496;11.324;2022-11-03T08:39:44;102.60;;;52.20;;
9294;SDS011;4686;44.496;11.324;2022-11-03T08:42:13;96.27;;;52.77;;
9294;SDS011;4686;44.496;11.324;2022-11-03T08:44:41;100.60;;;54.07;;
9294;SDS011;4686;44.496;11.324;2022-11-03T08:47:08;103.33;;;52.77;;
9294;SDS011;4686;44.496;11.324;2022-11-03T08:49:35;89.70;;;49.30;;
9294;SDS011;4686;44.496;11.324;2022-11-03T08:52:03;95.43;;;52.83;;
9294;SDS011;4686;44.496;11.324;2022-11-03T08:54:30;94.83;;;52.97;;
9294;SDS011;4686;44.496;11.324;2022-11-03T08:56:58;106.20;;;54.60;;
9294;SDS011;4686;44.496;11.324;2022-11-03T08:59:26;99.77;;;52.10;;
9294;SDS011;4686;44.496;11.324;2022-11-03T09:01:53;98.93;;;53.53;;
9294;SDS011;4686;44.496;11.324;2022-11-03T09:04:22;98.03;;;52.80;;
9294;SDS011;4686;44.496;11.324;2022-11-03T09:06:49;106.73;;;54.93;;
9294;SDS011;4686;44.496;11.324;2022-11-03T09:09:17;115.10;;;56.20;;
9294;SDS011;4686;44.496;11.324;2022-11-03T09:11:45;118.60;;;58.57;;
9294;SDS011;4686;44.496;11.324;2022-11-03T09:14:12;128.20;;;58.77;;
9294;SDS011;4686;44.496;11.324;2022-11-03T09:16:41;135.87;;;63.00;;
9294;SDS011;4686;44.496;11.324;2022-11-03T09:19:08;134.20;;;62.57;;
9294;SDS011;4686;44.496;11.324;2022-11-03T09:21:36;128.80;;;61.00;;
9294;SDS011;4686;44.496;11.324;2022-11-03T09:24:03;140.23;;;61.30;;
9294;SDS011;4686;44.496;11.324;2022-11-03T09:26:31;133.90;;;62.03;;
9294;SDS011;4686;44.496;11.324;2022-11-03T09:28:58;146.20;;;65.47;;
9294;SDS011;4686;44.496;11.324;2022-11-03T09:31:33;132.13;;;61.70;;
9294;SDS011;4686;44.496;11.324;2022-11-03T09:34:02;134.80;;;58.50;;
9294;SDS011;4686;44.496;11.324;2022-11-03T09:36:29;126.30;;;58.23;;
9294;SDS011;4686;44.496;11.324;2022-11-03T09:38:56;129.03;;;59.10;;
9294;SDS011;4686;44.496;11.324;2022-11-03T09:41:26;111.17;;;56.50;;
9294;SDS011;4686;44.496;11.324;2022-11-03T09:43:53;117.53;;;57.03;;
9294;SDS011;4686;44.496;11.324;2022-11-03T09:46:22;131.17;;;59.07;;
9294;SDS011;4686;44.496;11.324;2022-11-03T09:48:49;127.00;;;59.77;;
9294;SDS011;4686;44.496;11.324;2022-11-03T09:51:18;125.47;;;57.40;;
9294;SDS011;4686;44.496;11.324;2022-11-03T09:53:46;125.47;;;57.40;;
9294;SDS011;4686;44.496;11.324;2022-11-03T09:56:14;124.77;;;55.57;;
9294;SDS011;4686;44.496;11.324;2022-11-03T09:58:44;124.73;;;58.67;;
9294;SDS011;4686;44.496;11.324;2022-11-03T10:01:11;136.40;;;60.20;;
9294;SDS011;4686;44.496;11.324;2022-11-03T10:03:39;109.97;;;54.30;;
9294;SDS011;4686;44.496;11.324;2022-11-03T10:06:07;129.67;;;56.80;;
9294;SDS011;4686;44.496;11.324;2022-11-03T10:08:36;126.57;;;56.10;;
9294;SDS011;4686;44.496;11.324;2022-11-03T10:11:06;125.80;;;56.73;;
9294;SDS011;4686;44.496;11.324;2022-11-03T10:13:35;129.90;;;57.70;;
9294;SDS011;4686;44.496;11.324;2022-11-03T10:16:04;120.90;;;55.33;;
9294;SDS011;4686;44.496;11.324;2022-11-03T10:18:34;124.10;;;55.37;;
9294;SDS011;4686;44.496;11.324;2022-11-03T10:21:02;132.83;;;57.77;;
9294;SDS011;4686;44.496;11.324;2022-11-03T10:23:30;124.13;;;55.97;;
9294;SDS011;4686;44.496;11.324;2022-11-03T10:26:02;121.57;;;55.63;;
9294;SDS011;4686;44.496;11.324;2022-11-03T10:28:35;141.20;;;57.20;;
9294;SDS011;4686;44.496;11.324;2022-11-03T10:31:04;142.90;;;58.50;;
9294;SDS011;4686;44.496;11.324;2022-11-03T10:33:33;132.87;;;57.17;;
9294;SDS011;4686;44.496;11.324;2022-11-03T10:36:01;137.60;;;61.33;;
9294;SDS011;4686;44.496;11.324;2022-11-03T10:38:33;144.87;;;60.10;;
9294;SDS011;4686;44.496;11.324;2022-11-03T10:41:14;146.13;;;60.67;;
9294;SDS011;4686;44.496;11.324;2022-11-03T10:43:42;146.43;;;60.37;;
9294;SDS011;4686;44.496;11.324;2022-11-03T10:46:11;153.80;;;60.40;;
9294;SDS011;4686;44.496;11.324;2022-11-03T10:48:41;150.63;;;62.50;;
9294;SDS011;4686;44.496;11.324;2022-11-03T10:51:11;140.33;;;58.00;;
9294;SDS011;4686;44.496;11.324;2022-11-03T10:53:40;151.50;;;63.07;;
9294;SDS011;4686;44.496;11.324;2022-11-03T10:56:07;134.20;;;58.07;;
9294;SDS011;4686;44.496;11.324;2022-11-03T10:58:36;133.70;;;57.60;;
9294;SDS011;4686;44.496;11.324;2022-11-03T11:01:07;144.13;;;56.60;;
9294;SDS011;4686;44.496;11.324;2022-11-03T11:03:38;134.93;;;58.37;;
9294;SDS011;4686;44.496;11.324;2022-11-03T11:06:14;145.07;;;57.03;;
9294;SDS011;4686;44.496;11.324;2022-11-03T11:08:43;137.03;;;55.17;;
9294;SDS011;4686;44.496;11.324;2022-11-03T11:11:12;121.40;;;53.47;;
9294;SDS011;4686;44.496;11.324;2022-11-03T11:13:41;137.53;;;57.57;;
9294;SDS011;4686;44.496;11.324;2022-11-03T11:21:58;123.30;;;51.40;;
9294;SDS011;4686;44.496;11.324;2022-11-03T11:30:00;136.97;;;55.00;;
9294;SDS011;4686;44.496;11.324;2022-11-03T11:40:50;120.00;;;50.97;;
9294;SDS011;4686;44.496;11.324;2022-11-03T11:43:24;124.50;;;50.20;;
9294;SDS011;4686;44.496;11.324;2022-11-03T11:48:39;112.47;;;49.57;;
9294;SDS011;4686;44.496;11.324;2022-11-03T11:51:07;112.07;;;51.93;;
9294;SDS011;4686;44.496;11.324;2022-11-03T11:53:36;113.23;;;50.13;;
9294;SDS011;4686;44.496;11.324;2022-11-03T11:56:07;111.57;;;47.47;;
9294;SDS011;4686;44.496;11.324;2022-11-03T11:58:37;113.63;;;49.43;;
9294;SDS011;4686;44.496;11.324;2022-11-03T12:01:18;101.93;;;48.77;;
9294;SDS011;4686;44.496;11.324;2022-11-03T12:03:47;102.70;;;48.00;;
9294;SDS011;4686;44.496;11.324;2022-11-03T12:06:15;97.73;;;45.90;;
9294;SDS011;4686;44.496;11.324;2022-11-03T12:08:44;97.90;;;46.30;;
9294;SDS011;4686;44.496;11.324;2022-11-03T12:11:14;106.87;;;47.60;;
9294;SDS011;4686;44.496;11.324;2022-11-03T12:13:42;95.70;;;46.77;;
9294;SDS011;4686;44.496;11.324;2022-11-03T12:16:25;104.00;;;46.60;;
9294;SDS011;4686;44.496;11.324;2022-11-03T12:18:54;109.63;;;46.33;;
9294;SDS011;4686;44.496;11.324;2022-11-03T12:26:49;91.20;;;45.60;;
9294;SDS011;4686;44.496;11.324;2022-11-03T12:29:17;104.67;;;47.00;;
9294;SDS011;4686;44.496;11.324;2022-11-03T12:31:45;98.27;;;46.70;;
9294;SDS011;4686;44.496;11.324;2022-11-03T12:34:14;100.93;;;45.43;;
9294;SDS011;4686;44.496;11.324;2022-11-03T12:36:42;98.90;;;44.97;;
9294;SDS011;4686;44.496;11.324;2022-11-03T12:39:10;105.20;;;45.53;;
9294;SDS011;4686;44.496;11.324;2022-11-03T12:41:37;105.90;;;45.50;;
9294;SDS011;4686;44.496;11.324;2022-11-03T12:44:05;87.20;;;43.50;;
9294;SDS011;4686;44.496;11.324;2022-11-03T12:46:32;94.73;;;42.80;;
9294;SDS011;4686;44.496;11.324;2022-11-03T12:49:01;94.73;;;42.97;;
9294;SDS011;4686;44.496;11.324;2022-11-03T12:51:30;94.83;;;44.87;;
9294;SDS011;4686;44.496;11.324;2022-11-03T12:54:00;102.23;;;44.40;;
9294;SDS011;4686;44.496;11.324;2022-11-03T12:56:28;97.90;;;44.90;;
9294;SDS011;4686;44.496;11.324;2022-11-03T12:58:55;106.50;;;44.40;;
9294;SDS011;4686;44.496;11.324;2022-11-03T13:01:22;87.93;;;42.50;;
9294;SDS011;4686;44.496;11.324;2022-11-03T13:03:51;94.13;;;42.83;;
9294;SDS011;4686;44.496;11.324;2022-11-03T13:06:23;93.73;;;44.37;;
9294;SDS011;4686;44.496;11.324;2022-11-03T13:08:52;96.93;;;44.93;;
9294;SDS011;4686;44.496;11.324;2022-11-03T13:11:19;90.30;;;42.40;;
9294;SDS011;4686;44.496;11.324;2022-11-03T13:14:04;85.30;;;41.63;;
9294;SDS011;4686;44.496;11.324;2022-11-03T13:16:32;91.50;;;46.60;;
9294;SDS011;4686;44.496;11.324;2022-11-03T13:19:00;94.33;;;41.87;;
9294;SDS011;4686;44.496;11.324;2022-11-03T13:21:27;82.17;;;39.77;;
9294;SDS011;4686;44.496;11.324;2022-11-03T13:23:56;91.93;;;45.47;;
9294;SDS011;4686;44.496;11.324;2022-11-03T13:26:23;82.60;;;41.10;;
9294;SDS011;4686;44.496;11.324;2022-11-03T13:28:50;88.87;;;42.73;;
9294;SDS011;4686;44.496;11.324;2022-11-03T13:31:18;88.97;;;43.13;;
9294;SDS011;4686;44.496;11.324;2022-11-03T13:33:45;86.60;;;42.60;;
9294;SDS011;4686;44.496;11.324;2022-11-03T13:36:12;78.27;;;40.90;;
9294;SDS011;4686;44.496;11.324;2022-11-03T13:38:40;90.90;;;44.13;;
9294;SDS011;4686;44.496;11.324;2022-11-03T13:41:09;93.33;;;43.70;;
9294;SDS011;4686;44.496;11.324;2022-11-03T13:43:40;100.23;;;46.40;;
9294;SDS011;4686;44.496;11.324;2022-11-03T13:46:07;102.17;;;46.37;;
9294;SDS011;4686;44.496;11.324;2022-11-03T13:48:36;104.00;;;46.80;;
9294;SDS011;4686;44.496;11.324;2022-11-03T13:51:05;93.53;;;46.17;;
9294;SDS011;4686;44.496;11.324;2022-11-03T13:53:36;91.97;;;45.30;;
9294;SDS011;4686;44.496;11.324;2022-11-03T13:56:03;97.77;;;43.80;;
9294;SDS011;4686;44.496;11.324;2022-11-03T13:58:32;95.47;;;44.60;;
9294;SDS011;4686;44.496;11.324;2022-11-03T14:01:00;88.17;;;44.87;;
9294;SDS011;4686;44.496;11.324;2022-11-03T14:03:27;96.20;;;42.50;;
9294;SDS011;4686;44.496;11.324;2022-11-03T14:05:54;96.57;;;43.97;;
9294;SDS011;4686;44.496;11.324;2022-11-03T14:08:24;96.10;;;44.87;;
9294;SDS011;4686;44.496;11.324;2022-11-03T14:10:54;91.37;;;43.93;;
9294;SDS011;4686;44.496;11.324;2022-11-03T14:13:22;88.27;;;42.37;;
9294;SDS011;4686;44.496;11.324;2022-11-03T14:18:31;87.47;;;45.10;;
9294;SDS011;4686;44.496;11.324;2022-11-03T14:20:59;96.37;;;45.50;;
9294;SDS011;4686;44.496;11.324;2022-11-03T14:23:26;87.67;;;41.77;;
9294;SDS011;4686;44.496;11.324;2022-11-03T14:25:53;88.03;;;44.10;;
9294;SDS011;4686;44.496;11.324;2022-11-03T14:28:20;89.10;;;45.17;;
9294;SDS011;4686;44.496;11.324;2022-11-03T14:30:48;97.83;;;45.77;;
9294;SDS011;4686;44.496;11.324;2022-11-03T14:33:15;98.50;;;47.30;;
9294;SDS011;4686;44.496;11.324;2022-11-03T14:35:44;91.67;;;47.00;;
9294;SDS011;4686;44.496;11.324;2022-11-03T14:38:12;92.03;;;46.37;;
9294;SDS011;4686;44.496;11.324;2022-11-03T14:40:42;94.00;;;45.90;;
9294;SDS011;4686;44.496;11.324;2022-11-03T14:43:26;87.07;;;45.37;;
9294;SDS011;4686;44.496;11.324;2022-11-03T14:45:56;89.80;;;45.13;;
9294;SDS011;4686;44.496;11.324;2022-11-03T14:48:23;103.37;;;48.33;;
9294;SDS011;4686;44.496;11.324;2022-11-03T14:50:52;91.97;;;44.97;;
9294;SDS011;4686;44.496;11.324;2022-11-03T14:53:19;94.73;;;46.70;;
9294;SDS011;4686;44.496;11.324;2022-11-03T14:55:50;95.80;;;45.57;;
9294;SDS011;4686;44.496;11.324;2022-11-03T14:58:17;98.40;;;45.77;;
9294;SDS011;4686;44.496;11.324;2022-11-03T15:00:45;94.20;;;46.13;;
9294;SDS011;4686;44.496;11.324;2022-11-03T15:03:12;89.30;;;46.17;;
9294;SDS011;4686;44.496;11.324;2022-11-03T15:05:39;96.53;;;47.20;;
9294;SDS011;4686;44.496;11.324;2022-11-03T15:08:12;94.10;;;45.77;;
9294;SDS011;4686;44.496;11.324;2022-11-03T15:10:40;93.63;;;46.43;;
9294;SDS011;4686;44.496;11.324;2022-11-03T15:13:08;98.43;;;45.63;;
9294;SDS011;4686;44.496;11.324;2022-11-03T15:15:35;91.70;;;43.33;;
9294;SDS011;4686;44.496;11.324;2022-11-03T15:18:05;96.83;;;46.77;;